Time;durP1;ratioP1;P1;durP2;ratioP2;P2;SDS_P1;SDS_P2;PMS_P1;PMS_P2;Temp;Humidity;BMP_temperature;BMP_pressure;BME280_temperature;BME280_humidity;BME280_pressure;Samples;Min_cycle;Max_cycle;Signal;HPM_P1;HPM_P2
2022/06/12 00:00:57;;;;;;;14.48;5.22;;;13.00;99.90;;;;;;4958883;28;90188;-33
2022/06/12 00:03:25;;;;;;;8.88;5.45;;;13.00;99.90;;;;;;4959072;28;90583;-34
2022/06/12 00:05:54;;;;;;;8.63;5.75;;;13.00;99.90;;;;;;4959309;28;90490;-35
2022/06/12 00:08:21;;;;;;;11.15;5.22;;;13.00;99.90;;;;;;4959961;28;89373;-35
2022/06/12 00:10:49;;;;;;;9.75;5.43;;;12.90;99.90;;;;;;4959141;28;90210;-38
2022/06/12 00:13:19;;;;;;;14.32;5.72;;;12.90;99.90;;;;;;4959595;28;89912;-38
2022/06/12 00:15:45;;;;;;;12.68;6.07;;;12.90;99.90;;;;;;4959172;28;89544;-33
2022/06/12 00:18:10;;;;;;;9.75;5.85;;;12.90;99.90;;;;;;4959105;28;89144;-33
2022/06/12 00:20:37;;;;;;;14.55;6.75;;;12.90;99.90;;;;;;4990932;28;88975;-36
2022/06/12 00:23:08;;;;;;;12.75;6.53;;;12.80;99.90;;;;;;4963098;28;89769;-34
2022/06/12 00:25:34;;;;;;;12.45;5.18;;;12.80;99.90;;;;;;4962583;28;89765;-38
2022/06/12 00:27:59;;;;;;;8.18;5.50;;;12.80;99.90;;;;;;4962608;28;89129;-35
2022/06/12 00:30:26;;;;;;;14.60;5.80;;;12.80;99.90;;;;;;4962258;28;90452;-37
2022/06/12 00:32:54;;;;;;;8.45;4.95;;;12.80;99.90;;;;;;4962207;28;90777;-33
2022/06/12 00:35:27;;;;;;;13.98;6.03;;;12.70;99.90;;;;;;4962825;28;89532;-33
2022/06/12 00:37:53;;;;;;;11.82;5.50;;;12.70;99.90;;;;;;4961958;28;88569;-35
2022/06/12 00:40:20;;;;;;;9.40;5.60;;;12.80;99.90;;;;;;4962500;28;90980;-34
2022/06/12 00:42:52;;;;;;;18.50;5.63;;;12.70;99.90;;;;;;4961825;28;90034;-37
2022/06/12 00:45:36;;;;;;;11.23;5.13;;;12.70;99.90;;;;;;4962150;28;90358;-35
2022/06/12 00:48:12;;;;;;;8.75;5.15;;;12.70;99.90;;;;;;4961947;28;88690;-35
2022/06/12 00:50:43;;;;;;;9.10;5.43;;;12.70;99.90;;;;;;4961936;28;90366;-34
2022/06/12 00:53:17;;;;;;;8.43;4.90;;;12.70;99.90;;;;;;4961478;28;90823;-36
2022/06/12 00:56:08;;;;;;;9.88;5.20;;;12.60;99.90;;;;;;4961729;28;90388;-34
2022/06/12 00:58:40;;;;;;;11.23;4.82;;;12.60;99.90;;;;;;5020314;22;88755;-37
2022/06/12 01:01:11;;;;;;;10.30;5.07;;;12.60;99.90;;;;;;4981541;28;90507;-38
2022/06/12 01:06:33;;;;;;;13.32;6.45;;;12.60;99.90;;;;;;4981629;28;89752;-39
2022/06/12 01:06:34;;;;;;;10.05;4.95;;;12.60;99.90;;;;;;4981737;28;90131;-35
2022/06/12 01:09:12;;;;;;;9.80;6.40;;;12.70;99.90;;;;;;4983076;28;89084;-34
2022/06/12 01:11:41;;;;;;;14.07;6.60;;;12.70;99.90;;;;;;4981853;28;90141;-34
2022/06/12 01:14:09;;;;;;;12.52;6.15;;;12.70;99.90;;;;;;4981501;28;89587;-34
2022/06/12 01:16:38;;;;;;;;;;;12.70;99.90;;;;;;4981408;28;90083;-34
2022/06/12 01:19:06;;;;;;;14.23;6.47;;;12.70;99.90;;;;;;4982574;28;89332;-37
2022/06/12 01:21:51;;;;;;;16.73;5.53;;;12.70;99.90;;;;;;4981115;28;90195;-36
2022/06/12 01:24:43;;;;;;;12.73;5.82;;;12.70;99.90;;;;;;4981690;28;88776;-36
2022/06/12 01:27:22;;;;;;;13.05;4.93;;;12.70;99.90;;;;;;4981103;28;89951;-37
2022/06/12 01:30:01;;;;;;;23.63;6.20;;;12.60;99.90;;;;;;4981160;28;89896;-38
2022/06/12 01:32:55;;;;;;;13.18;5.90;;;12.60;99.90;;;;;;4980687;28;90047;-33
2022/06/12 01:35:27;;;;;;;9.50;4.93;;;12.50;99.90;;;;;;4982023;28;89367;-35
2022/06/12 01:38:03;;;;;;;13.23;4.97;;;12.50;99.90;;;;;;4980758;28;90486;-38
2022/06/12 01:40:39;;;;;;;7.68;4.85;;;12.50;99.90;;;;;;4982143;28;89322;-34
2022/06/12 01:43:18;;;;;;;15.60;4.75;;;12.40;99.90;;;;;;4980891;28;89661;-35
2022/06/12 01:46:04;;;;;;;8.30;4.57;;;12.40;99.90;;;;;;4980333;28;90680;-33
2022/06/12 01:48:52;;;;;;;8.35;4.60;;;12.40;99.90;;;;;;4980723;28;90626;-34
2022/06/12 01:51:52;;;;;;;9.27;4.78;;;12.40;99.90;;;;;;4981170;28;89100;-36
2022/06/12 01:54:31;;;;;;;6.95;4.22;;;12.30;99.90;;;;;;4980831;28;90104;-34
2022/06/12 01:57:16;;;;;;;10.48;5.20;;;12.30;99.90;;;;;;4980899;28;89719;-34
2022/06/12 02:00:02;;;;;;;8.30;4.75;;;12.20;99.90;;;;;;4981354;28;89758;-36
2022/06/12 02:02:44;;;;;;;13.63;4.30;;;12.20;99.90;;;;;;4981026;28;88585;-36
2022/06/12 02:05:19;;;;;;;9.77;4.70;;;12.20;99.90;;;;;;4981155;28;90101;-34
2022/06/12 02:08:08;;;;;;;8.35;4.80;;;12.20;99.90;;;;;;4980848;28;90129;-33
2022/06/12 02:10:48;;;;;;;11.85;4.95;;;12.20;99.90;;;;;;4981167;28;89530;-39
2022/06/12 02:13:22;;;;;;;6.75;4.18;;;12.20;99.90;;;;;;4980705;28;88744;-36
2022/06/12 02:16:03;;;;;;;9.75;4.82;;;12.20;99.90;;;;;;4980148;28;88683;-33
2022/06/12 02:18:37;;;;;;;7.70;4.47;;;12.20;99.90;;;;;;4980506;28;89375;-34
2022/06/12 02:21:09;;;;;;;7.40;4.75;;;12.10;99.90;;;;;;4980966;28;90146;-36
2022/06/12 02:23:45;;;;;;;8.05;4.57;;;12.10;99.90;;;;;;4979924;28;88831;-34
2022/06/12 02:26:16;;;;;;;10.18;5.03;;;12.10;99.90;;;;;;4980611;28;90214;-38
2022/06/12 02:29:07;;;;;;;9.88;4.97;;;12.10;99.90;;;;;;4980311;28;89835;-34
2022/06/12 02:31:41;;;;;;;10.95;5.65;;;12.10;99.90;;;;;;4979644;28;89511;-35
2022/06/12 02:34:15;;;;;;;8.52;5.15;;;12.10;99.90;;;;;;4980886;28;89354;-35
2022/06/12 02:36:46;;;;;;;11.00;5.13;;;12.10;99.90;;;;;;4978979;28;90200;-35
2022/06/12 02:39:27;;;;;;;8.40;5.25;;;12.10;99.90;;;;;;4980123;28;90724;-33
2022/06/12 02:41:59;;;;;;;13.18;5.07;;;12.00;99.90;;;;;;4979939;28;90582;-33
2022/06/12 02:44:35;;;;;;;10.02;4.85;;;12.00;99.90;;;;;;4979824;28;89243;-37
2022/06/12 02:47:07;;;;;;;13.00;6.30;;;12.00;99.90;;;;;;4979896;28;90446;-34
2022/06/12 02:49:34;;;;;;;8.02;5.00;;;12.00;99.90;;;;;;4980283;28;89561;-37
2022/06/12 02:52:25;;;;;;;7.33;4.87;;;12.00;99.90;;;;;;4980353;28;89590;-33
2022/06/12 02:55:09;;;;;;;6.80;4.38;;;12.10;99.90;;;;;;4980973;28;89955;-37
2022/06/12 02:57:48;;;;;;;8.23;5.28;;;12.00;99.90;;;;;;4979438;28;90515;-38
2022/06/12 03:00:32;;;;;;;5.57;5.05;;;12.10;99.90;;;;;;4979559;28;89710;-34
2022/06/12 03:03:04;;;;;;;6.32;4.90;;;12.10;99.90;;;;;;4979521;28;89390;-37
2022/06/12 03:05:35;;;;;;;11.50;4.80;;;12.10;99.90;;;;;;4979369;28;90120;-34
2022/06/12 03:08:08;;;;;;;5.40;4.80;;;12.10;99.90;;;;;;4979723;28;90248;-33
2022/06/12 03:10:39;;;;;;;5.53;4.65;;;12.10;99.90;;;;;;4980445;28;89788;-38
2022/06/12 03:13:08;;;;;;;8.70;5.10;;;12.10;99.90;;;;;;4980174;28;89486;-34
2022/06/12 03:15:36;;;;;;;;;;;12.10;99.90;;;;;;4980998;28;89129;-33
2022/06/12 03:18:02;;;;;;;;;;;12.10;99.90;;;;;;4982021;28;90307;-34
2022/06/12 03:20:52;;;;;;;11.55;5.25;;;12.10;99.90;;;;;;4981411;28;89031;-35
2022/06/12 03:23:56;;;;;;;8.15;4.95;;;12.10;99.90;;;;;;4967516;28;89455;-37
2022/06/12 03:26:38;;;;;;;11.48;5.70;;;12.10;99.90;;;;;;4979404;28;89606;-38
2022/06/12 03:29:36;;;;;;;7.03;4.97;;;12.10;99.90;;;;;;4979921;28;90953;-34
2022/06/12 03:32:14;;;;;;;8.18;4.82;;;12.20;99.90;;;;;;4973628;28;90660;-34
2022/06/12 03:34:39;;;;;;;9.47;5.73;;;12.20;99.90;;;;;;4978802;28;91051;-36
2022/06/12 03:37:33;;;;;;;10.48;5.03;;;12.20;99.90;;;;;;4980134;28;88920;-33
2022/06/12 03:40:11;;;;;;;10.32;5.35;;;12.20;99.90;;;;;;4977515;28;90432;-36
2022/06/12 03:42:56;;;;;;;11.13;5.60;;;12.20;99.90;;;;;;4979308;28;89241;-35
2022/06/12 03:45:51;;;;;;;13.55;4.50;;;12.30;99.90;;;;;;4979083;28;89507;-36
2022/06/12 03:48:30;;;;;;;6.55;3.90;;;12.30;99.90;;;;;;4976880;28;88896;-38
2022/06/12 03:51:06;;;;;;;9.98;4.88;;;12.30;99.90;;;;;;4979515;28;89237;-34
2022/06/12 03:53:35;;;;;;;7.85;4.00;;;12.30;99.90;;;;;;4978892;28;90684;-33
2022/06/12 03:58:59;;;;;;;5.13;4.60;;;12.40;99.90;;;;;;4985866;28;89815;-33
2022/06/12 04:01:26;;;;;;;9.10;4.45;;;12.50;99.90;;;;;;4985602;28;90545;-36
2022/06/12 04:03:55;;;;;;;9.88;4.63;;;12.60;99.90;;;;;;4985045;28;89690;-34
2022/06/12 04:06:25;;;;;;;7.97;4.30;;;12.60;99.90;;;;;;4986120;28;89709;-34
2022/06/12 04:08:57;;;;;;;12.88;4.43;;;12.60;99.90;;;;;;4986547;28;89281;-34
2022/06/12 04:11:26;;;;;;;7.28;3.85;;;12.70;99.90;;;;;;4986082;28;89015;-38
2022/06/12 04:13:52;;;;;;;10.73;4.63;;;12.70;99.90;;;;;;4985582;28;90134;-35
2022/06/12 04:16:34;;;;;;;7.53;4.20;;;12.70;99.90;;;;;;4985577;28;88942;-35
2022/06/12 04:19:03;;;;;;;9.73;4.07;;;12.80;99.90;;;;;;4986197;28;89661;-35
2022/06/12 04:21:40;;;;;;;5.82;4.13;;;12.80;99.90;;;;;;4985809;28;90792;-36
2022/06/12 04:24:16;;;;;;;9.67;4.60;;;12.90;99.90;;;;;;4984861;28;90509;-37
2022/06/12 04:26:48;;;;;;;7.45;4.60;;;13.00;99.90;;;;;;4985063;28;89657;-34
2022/06/12 04:29:13;;;;;;;5.55;4.15;;;13.10;99.90;;;;;;4985524;28;88744;-36
2022/06/12 04:31:42;;;;;;;7.50;3.85;;;13.30;99.90;;;;;;4985074;28;90444;-34
2022/06/12 04:34:14;;;;;;;7.63;4.75;;;13.40;99.90;;;;;;4985556;28;88761;-35
2022/06/12 04:36:44;;;;;;;7.10;4.10;;;13.70;99.90;;;;;;4985417;28;89610;-32
2022/06/12 04:39:12;;;;;;;8.38;4.40;;;13.90;99.90;;;;;;4985509;28;88943;-33
2022/06/12 04:41:38;;;;;;;6.05;4.30;;;14.10;99.90;;;;;;4985102;28;90206;-37
2022/06/12 04:44:05;;;;;;;8.18;4.13;;;14.30;99.90;;;;;;4985240;28;90035;-33
2022/06/12 04:46:33;;;;;;;5.85;3.65;;;14.40;99.90;;;;;;4985021;28;89699;-34
2022/06/12 04:49:00;;;;;;;10.82;5.18;;;14.50;99.90;;;;;;4984515;28;90156;-33
2022/06/12 04:51:27;;;;;;;9.65;4.78;;;14.70;99.90;;;;;;4985768;28;89775;-37
2022/06/12 04:53:53;;;;;;;13.30;3.43;;;14.90;99.90;;;;;;4984364;28;89964;-34
2022/06/12 04:56:21;;;;;;;6.53;3.58;;;15.00;99.90;;;;;;4984795;28;88894;-35
2022/06/12 04:58:48;;;;;;;7.95;4.20;;;15.20;99.90;;;;;;4983355;28;88768;-36
2022/06/12 05:01:14;;;;;;;8.98;3.15;;;15.40;99.90;;;;;;4985352;28;90220;-34
2022/06/12 05:03:40;;;;;;;10.18;4.25;;;15.50;99.90;;;;;;4983742;28;90823;-35
2022/06/12 05:06:07;;;;;;;8.80;4.28;;;15.70;99.90;;;;;;4984614;28;90489;-37
2022/06/12 05:08:34;;;;;;;7.47;3.42;;;15.80;99.90;;;;;;4980986;28;88271;-33
2022/06/12 05:11:00;;;;;;;9.88;3.80;;;15.90;99.90;;;;;;4981305;28;90308;-33
2022/06/12 05:13:26;;;;;;;5.28;3.53;;;16.10;99.90;;;;;;4980582;28;91018;-37
2022/06/12 05:15:51;;;;;;;11.32;4.03;;;16.30;99.90;;;;;;4981078;28;90688;-34
2022/06/12 05:18:18;;;;;;;6.00;3.85;;;16.40;99.90;;;;;;4981326;28;88948;-34
2022/06/12 05:20:45;;;;;;;9.90;4.03;;;16.60;99.90;;;;;;4981151;28;90095;-34
2022/06/12 05:23:12;;;;;;;5.20;3.35;;;16.60;99.90;;;;;;4981952;28;89534;-33
2022/06/12 05:25:39;;;;;;;6.75;3.63;;;16.80;99.90;;;;;;4980516;28;89502;-35
2022/06/12 05:28:06;;;;;;;5.30;2.87;;;16.90;99.90;;;;;;4981163;28;88846;-38
2022/06/12 05:30:34;;;;;;;3.58;3.20;;;16.90;99.90;;;;;;4982014;28;90348;-33
2022/06/12 05:33:01;;;;;;;6.85;3.88;;;17.10;99.90;;;;;;4981372;28;89609;-34
2022/06/12 05:35:28;;;;;;;8.20;3.70;;;17.20;99.90;;;;;;4981278;28;89763;-34
2022/06/12 05:37:54;;;;;;;6.43;3.65;;;17.40;99.90;;;;;;4980682;28;89700;-37
2022/06/12 05:40:27;;;;;;;6.68;3.17;;;17.40;99.90;;;;;;4981343;28;89069;-37
2022/06/12 05:42:53;;;;;;;4.55;2.97;;;17.50;99.90;;;;;;4980876;28;89672;-34
2022/06/12 05:45:21;;;;;;;7.78;3.50;;;17.70;99.90;;;;;;4980956;28;90123;-38
2022/06/12 05:48:00;;;;;;;7.20;3.63;;;17.60;99.90;;;;;;4981270;28;89530;-34
2022/06/12 05:50:29;;;;;;;8.30;3.50;;;17.80;99.90;;;;;;4980935;28;90434;-37
2022/06/12 05:52:56;;;;;;;9.25;3.53;;;17.80;99.90;;;;;;4980343;28;90906;-34
2022/06/12 05:55:22;;;;;;;8.30;3.78;;;18.00;99.90;;;;;;4980180;28;89498;-35
2022/06/12 05:57:48;;;;;;;9.60;4.07;;;18.00;99.90;;;;;;4981326;28;88116;-35
2022/06/12 06:00:19;;;;;;;7.40;4.07;;;18.20;99.90;;;;;;4980615;28;90121;-37
2022/06/12 06:02:45;;;;;;;15.38;4.22;;;18.30;99.90;;;;;;4980347;28;92029;-35
2022/06/12 06:05:12;;;;;;;10.02;4.28;;;18.40;99.90;;;;;;4980244;28;89651;-34
2022/06/12 06:07:38;;;;;;;8.82;3.80;;;18.30;99.90;;;;;;4980788;28;88311;-34
2022/06/12 06:10:07;;;;;;;8.68;4.68;;;18.60;99.90;;;;;;4980625;28;91364;-33
2022/06/12 06:12:33;;;;;;;14.20;4.30;;;18.80;99.90;;;;;;4980890;28;92367;-34
2022/06/12 06:14:59;;;;;;;10.73;4.70;;;18.90;99.90;;;;;;4980297;28;89608;-36
2022/06/12 06:17:24;;;;;;;6.70;4.00;;;19.10;99.90;;;;;;4981439;28;89935;-34
2022/06/12 06:19:50;;;;;;;11.10;3.50;;;19.20;99.90;;;;;;4980374;28;90720;-35
2022/06/12 06:22:18;;;;;;;10.10;4.57;;;19.50;99.90;;;;;;4980651;28;90216;-33
2022/06/12 06:24:44;;;;;;;9.02;4.57;;;19.30;99.90;;;;;;4980314;28;90482;-34
2022/06/12 06:27:11;;;;;;;10.82;4.10;;;19.40;99.90;;;;;;4980269;28;90352;-36
2022/06/12 06:29:37;;;;;;;9.87;4.33;;;19.50;99.90;;;;;;4980621;28;90591;-36
2022/06/12 06:32:05;;;;;;;5.88;4.57;;;19.70;99.90;;;;;;4981411;28;90325;-33
2022/06/12 06:34:31;;;;;;;10.77;4.70;;;19.90;99.90;;;;;;4979477;28;89372;-35
2022/06/12 06:36:57;;;;;;;16.23;4.72;;;19.80;99.90;;;;;;4980345;28;89347;-37
2022/06/12 06:39:23;;;;;;;12.85;4.00;;;20.10;99.90;;;;;;4980636;28;90708;-36
2022/06/12 06:41:49;;;;;;;11.55;3.40;;;20.10;99.90;;;;;;4980176;28;89702;-34
2022/06/12 06:46:59;;;;;;;11.63;4.82;;;20.00;99.90;;;;;;4980486;28;89555;-36
2022/06/12 06:49:25;;;;;;;15.48;3.78;;;20.10;99.90;;;;;;4980120;28;90056;-38
2022/06/12 06:51:51;;;;;;;11.30;4.45;;;20.30;99.90;;;;;;4979028;28;92019;-35
2022/06/12 06:54:17;;;;;;;14.73;5.40;;;20.20;99.90;;;;;;4979878;28;88586;-33
2022/06/12 06:56:44;;;;;;;17.98;4.53;;;20.40;99.90;;;;;;4980412;28;88436;-34
2022/06/12 06:59:09;;;;;;;15.05;5.13;;;20.20;99.90;;;;;;4979495;28;90191;-34
2022/06/12 07:01:35;;;;;;;14.05;5.10;;;20.30;99.90;;;;;;4978434;28;90543;-37
2022/06/12 07:04:02;;;;;;;11.18;4.45;;;20.50;99.90;;;;;;4960301;28;90539;-34
2022/06/12 07:06:28;;;;;;;11.20;5.32;;;20.50;99.90;;;;;;4959410;28;89266;-33
2022/06/12 07:08:54;;;;;;;10.43;5.03;;;20.60;99.90;;;;;;4973236;28;90516;-34
2022/06/12 07:11:21;;;;;;;12.68;5.05;;;20.70;99.90;;;;;;4980092;28;88429;-34
2022/06/12 07:13:47;;;;;;;11.25;3.92;;;20.70;99.90;;;;;;4979443;28;88983;-36
2022/06/12 07:16:13;;;;;;;14.65;6.15;;;20.70;99.90;;;;;;4979541;28;91263;-38
2022/06/12 07:18:38;;;;;;;17.40;5.00;;;20.70;99.90;;;;;;4979160;28;90121;-37
2022/06/12 07:21:05;;;;;;;12.38;4.65;;;20.80;99.90;;;;;;4974294;28;89616;-36
2022/06/12 07:23:32;;;;;;;15.25;5.20;;;20.90;99.90;;;;;;4960141;28;89654;-37
2022/06/12 07:26:04;;;;;;;12.93;5.38;;;21.00;99.90;;;;;;4973793;28;88952;-35
2022/06/12 07:28:31;;;;;;;12.43;5.80;;;21.20;99.90;;;;;;4980148;28;90430;-36
2022/06/12 07:30:57;;;;;;;15.07;5.23;;;20.90;99.90;;;;;;4978932;28;89523;-34
2022/06/12 07:33:23;;;;;;;10.02;4.97;;;21.10;99.90;;;;;;4978985;28;90062;-35
2022/06/12 07:35:50;;;;;;;15.50;5.20;;;21.20;99.90;;;;;;4979664;28;89243;-35
2022/06/12 07:38:19;;;;;;;17.52;4.60;;;21.10;99.90;;;;;;4978620;28;90130;-36
2022/06/12 07:40:50;;;;;;;16.10;5.03;;;21.60;99.90;;;;;;4978318;28;90647;-37
2022/06/12 07:43:16;;;;;;;14.07;5.22;;;21.70;99.90;;;;;;4979424;28;92301;-35
2022/06/12 07:45:43;;;;;;;12.45;5.28;;;21.80;99.90;;;;;;4978571;28;88933;-36
2022/06/12 07:48:09;;;;;;;13.10;5.25;;;21.40;99.90;;;;;;4979368;28;90293;-35
2022/06/12 07:50:38;;;;;;;15.27;4.63;;;21.60;99.90;;;;;;4979056;28;89656;-35
2022/06/12 07:53:04;;;;;;;17.35;5.15;;;21.80;99.90;;;;;;4979485;28;89931;-37
2022/06/12 07:55:30;;;;;;;10.00;4.07;;;21.80;99.90;;;;;;4967221;28;88322;-34
2022/06/12 07:57:56;;;;;;;10.93;4.25;;;22.30;99.90;;;;;;4979549;28;90310;-34
2022/06/12 08:00:23;;;;;;;12.50;5.55;;;22.50;99.90;;;;;;4978731;28;90201;-37
2022/06/12 08:02:49;;;;;;;10.77;5.00;;;22.40;99.90;;;;;;4977714;28;90307;-36
2022/06/12 08:05:17;;;;;;;13.25;4.80;;;22.20;99.90;;;;;;4976807;28;88542;-34
2022/06/12 08:07:42;;;;;;;11.77;4.68;;;22.40;99.90;;;;;;4975608;28;90295;-34
2022/06/12 08:10:10;;;;;;;7.93;4.47;;;22.70;99.90;;;;;;4976912;28;90069;-37
2022/06/12 08:12:37;;;;;;;17.67;4.90;;;22.60;99.90;;;;;;4976656;28;89088;-36
2022/06/12 08:15:06;;;;;;;10.57;4.25;;;22.30;99.90;;;;;;4976986;28;89981;-35
2022/06/12 08:17:32;;;;;;;12.50;5.45;;;22.40;99.90;;;;;;4976440;28;92920;-35
2022/06/12 08:22:41;;;;;;;11.38;5.53;;;22.40;99.90;;;;;;4976406;28;89601;-36
2022/06/12 08:25:08;;;;;;;14.48;5.35;;;22.40;99.90;;;;;;4976491;28;88810;-37
2022/06/12 08:27:33;;;;;;;8.20;4.57;;;22.40;99.90;;;;;;4977729;28;89957;-34
2022/06/12 08:29:59;;;;;;;11.80;4.07;;;22.60;99.90;;;;;;4976335;28;92391;-36
2022/06/12 08:32:25;;;;;;;10.35;4.75;;;22.80;99.90;;;;;;4976695;28;90002;-34
2022/06/12 08:35:03;;;;;;;8.15;4.28;;;22.70;99.90;;;;;;4976379;28;89585;-35
2022/06/12 08:37:33;;;;;;;12.90;5.03;;;22.40;99.90;;;;;;4976772;28;90796;-35
2022/06/12 08:39:59;;;;;;;9.82;4.00;;;22.60;99.90;;;;;;4976144;28;89843;-33
2022/06/12 08:42:30;;;;;;;10.57;4.25;;;22.80;99.90;;;;;;4976405;28;89621;-36
2022/06/12 08:45:34;;;;;;;11.20;4.18;;;22.90;99.90;;;;;;4966343;28;88892;-36
2022/06/12 08:48:09;;;;;;;7.47;3.42;;;23.00;99.90;;;;;;4967979;28;90861;-35
2022/06/12 08:50:58;;;;;;;13.13;4.28;;;22.70;99.90;;;;;;4979376;28;89724;-38
2022/06/12 08:53:54;;;;;;;8.02;4.53;;;22.60;99.90;;;;;;4965833;28;90186;-37
2022/06/12 08:56:24;;;;;;;8.32;3.22;;;22.70;99.90;;;;;;4964081;28;89210;-39
2022/06/12 08:59:19;;;;;;;6.43;2.97;;;22.70;99.90;;;;;;4978131;28;88375;-37
2022/06/12 09:01:44;;;;;;;6.20;2.78;;;22.70;99.90;;;;;;4978956;28;90192;-36
2022/06/12 09:04:16;;;;;;;13.93;4.57;;;22.80;99.90;;;;;;4979535;28;90162;-36
2022/06/12 09:06:56;;;;;;;7.32;3.65;;;23.10;99.90;;;;;;4979954;28;90115;-35
2022/06/12 09:09:26;;;;;;;7.00;3.10;;;23.10;99.90;;;;;;4979189;28;89974;-35
2022/06/12 09:12:01;;;;;;;8.73;3.38;;;22.80;99.90;;;;;;4979467;28;88381;-38
2022/06/12 09:14:54;;;;;;;7.35;3.17;;;22.70;99.90;;;;;;4979118;28;89589;-35
2022/06/12 09:18:00;;;;;;;12.73;4.85;;;22.20;99.90;;;;;;4979228;28;89416;-35
2022/06/12 09:20:44;;;;;;;10.93;4.50;;;21.80;99.90;;;;;;4966929;28;90575;-37
2022/06/12 09:23:34;;;;;;;12.65;4.53;;;22.20;99.90;;;;;;4976920;28;90511;-35
2022/06/12 09:26:11;;;;;;;8.05;4.13;;;22.50;99.90;;;;;;4979477;28;90051;-40
2022/06/12 09:28:50;;;;;;;;;;;22.90;99.90;;;;;;4980224;28;88727;-35
2022/06/12 09:31:27;;;;;;;10.18;4.28;;;23.00;99.90;;;;;;4982305;28;90218;-36
2022/06/12 09:34:13;;;;;;;4.82;3.97;;;23.30;99.90;;;;;;4978133;28;90202;-36
2022/06/12 09:36:51;;;;;;;9.77;4.63;;;23.40;99.90;;;;;;4978115;28;89918;-39
2022/06/12 09:39:22;;;;;;;7.80;3.83;;;23.10;99.70;;;;;;4979671;28;87739;-35
2022/06/12 09:41:54;;;;;;;10.43;3.50;;;23.60;99.90;;;;;;4979392;28;90260;-36
2022/06/12 09:44:35;;;;;;;10.25;4.00;;;23.40;99.10;;;;;;4978652;28;90068;-35
2022/06/12 09:47:19;;;;;;;6.85;3.95;;;23.20;99.90;;;;;;4979486;28;89792;-35
2022/06/12 09:50:07;;;;;;;11.27;3.55;;;23.10;98.20;;;;;;4978194;28;89954;-37
2022/06/12 09:52:49;;;;;;;12.85;3.50;;;22.70;99.90;;;;;;4977609;28;90299;-40
2022/06/12 09:55:31;;;;;;;12.75;4.95;;;22.90;99.90;;;;;;4976758;28;90836;-35
2022/06/12 09:58:11;;;;;;;7.93;3.60;;;22.70;99.90;;;;;;4977646;28;89589;-38
2022/06/12 10:00:47;;;;;;;7.57;3.72;;;22.30;99.90;;;;;;4978483;28;88250;-35
2022/06/12 10:03:21;;;;;;;8.35;4.53;;;22.40;98.90;;;;;;4977636;28;90335;-36
2022/06/12 10:05:55;;;;;;;7.75;3.42;;;22.60;94.70;;;;;;4977278;28;89764;-38
2022/06/12 10:08:32;;;;;;;8.18;3.65;;;22.50;99.90;;;;;;4978434;28;90152;-35
2022/06/12 10:11:11;;;;;;;9.07;3.35;;;22.40;99.90;;;;;;4978089;28;89090;-33
2022/06/12 10:14:21;;;;;;;5.70;3.22;;;22.50;98.50;;;;;;4968263;28;90183;-36
2022/06/12 10:17:05;;;;;;;7.97;3.65;;;22.80;98.00;;;;;;4965669;28;91465;-35
2022/06/12 10:19:34;;;;;;;6.78;3.85;;;23.20;95.10;;;;;;4981851;28;90059;-35
2022/06/12 10:22:05;;;;;;;11.07;3.92;;;23.20;91.30;;;;;;4980313;28;90076;-35
2022/06/12 10:24:30;;;;;;;11.35;3.53;;;22.80;82.00;;;;;;4978977;28;90664;-35
2022/06/12 10:27:02;;;;;;;9.85;2.67;;;22.80;91.50;;;;;;4977041;28;90514;-35
2022/06/12 10:30:00;;;;;;;8.50;2.97;;;23.00;92.80;;;;;;4959147;28;89337;-35
2022/06/12 10:32:48;;;;;;;8.98;2.78;;;22.90;78.90;;;;;;4977075;28;88634;-35
2022/06/12 10:35:20;;;;;;;7.97;2.78;;;22.70;83.00;;;;;;4978190;28;90253;-37
2022/06/12 10:37:45;;;;;;;9.00;3.85;;;22.20;91.70;;;;;;4977681;28;90641;-34
2022/06/12 10:40:14;;;;;;;6.10;2.80;;;22.20;95.30;;;;;;4978141;28;91153;-36
2022/06/12 10:42:56;;;;;;;6.80;2.88;;;22.50;91.10;;;;;;4978038;28;88828;-33
2022/06/12 10:45:34;;;;;;;6.32;3.13;;;22.70;83.00;;;;;;4980601;28;91362;-37
2022/06/12 10:48:21;;;;;;;4.60;2.58;;;23.00;76.60;;;;;;4980905;28;89423;-35
2022/06/12 10:50:52;;;;;;;;;;;23.00;74.80;;;;;;4980307;28;90147;-34
2022/06/12 10:53:19;;;;;;;6.97;2.97;;;23.30;84.40;;;;;;4982124;28;88094;-33
2022/06/12 10:56:04;;;;;;;3.13;2.77;;;23.10;68.20;;;;;;4980627;28;89839;-34
2022/06/12 10:58:53;;;;;;;4.88;2.55;;;23.10;72.70;;;;;;4975398;28;90065;-35
2022/06/12 11:01:44;;;;;;;6.75;3.05;;;23.20;69.40;;;;;;4978509;28;89822;-38
2022/06/12 11:04:19;;;;;;;4.38;2.53;;;23.40;67.80;;;;;;4979958;28;90069;-34
2022/06/12 11:06:53;;;;;;;8.80;3.17;;;23.50;64.70;;;;;;4978712;28;89860;-35
2022/06/12 11:09:33;;;;;;;5.47;2.72;;;23.50;65.60;;;;;;4978763;28;90835;-34
2022/06/12 11:12:17;;;;;;;13.52;3.17;;;23.50;66.60;;;;;;4980028;28;89481;-37
2022/06/12 11:15:07;;;;;;;5.15;2.13;;;23.30;64.00;;;;;;4979305;28;89180;-34
2022/06/12 11:17:48;;;;;;;10.90;3.88;;;23.30;69.40;;;;;;4979709;28;89748;-36
2022/06/12 11:20:22;;;;;;;5.85;2.00;;;23.10;67.20;;;;;;4979774;28;89447;-37
2022/06/12 11:22:59;;;;;;;10.02;2.28;;;23.20;65.10;;;;;;4978918;28;90038;-35
2022/06/12 11:25:27;;;;;;;14.10;3.10;;;23.20;67.60;;;;;;4979433;28;88193;-36
2022/06/12 11:28:16;;;;;;;7.25;3.17;;;23.20;73.80;;;;;;4979384;28;89173;-34
2022/06/12 11:31:01;;;;;;;10.90;2.28;;;23.40;77.30;;;;;;4968477;28;91038;-35
2022/06/12 11:33:29;;;;;;;12.45;2.67;;;23.40;72.90;;;;;;4978760;28;90113;-37
2022/06/12 11:36:31;;;;;;;4.93;2.50;;;23.40;72.60;;;;;;4978325;28;90941;-36
2022/06/12 11:39:17;;;;;;;3.40;2.30;;;23.40;69.80;;;;;;4977087;28;90355;-35
2022/06/12 11:41:54;;;;;;;4.50;2.10;;;23.40;69.90;;;;;;4977203;28;91071;-36
2022/06/12 11:44:58;;;;;;;10.02;3.50;;;23.00;63.90;;;;;;4978603;28;89369;-36
2022/06/12 11:47:50;;;;;;;3.28;2.30;;;22.70;64.10;;;;;;4970438;28;90283;-34
2022/06/12 11:50:31;;;;;;;5.40;2.97;;;22.60;67.30;;;;;;4976913;28;90812;-38
2022/06/12 11:53:22;;;;;;;3.15;2.55;;;22.70;69.90;;;;;;4979527;28;89780;-35
2022/06/12 11:55:55;;;;;;;5.30;2.50;;;22.80;67.50;;;;;;4970759;28;90193;-38
2022/06/12 11:58:40;;;;;;;2.85;1.88;;;22.90;63.00;;;;;;4979038;28;89785;-34
2022/06/12 12:01:15;;;;;;;9.52;2.83;;;22.90;61.80;;;;;;4979812;28;90239;-34
2022/06/12 12:03:44;;;;;;;3.53;2.00;;;22.90;61.90;;;;;;4978413;28;91798;-34
2022/06/12 12:06:40;;;;;;;4.65;2.38;;;22.70;60.90;;;;;;4978851;28;92518;-35
2022/06/12 12:09:40;;;;;;;5.40;2.30;;;22.70;63.60;;;;;;4978993;28;90328;-38
2022/06/12 12:12:19;;;;;;;2.75;1.85;;;22.60;65.10;;;;;;4971239;28;90307;-34
2022/06/12 12:14:47;;;;;;;3.65;2.20;;;22.40;70.60;;;;;;4978362;28;90896;-36
2022/06/12 12:17:19;;;;;;;5.88;2.35;;;22.50;69.30;;;;;;4980378;28;89642;-34
2022/06/12 12:19:46;;;;;;;4.15;2.15;;;22.60;73.20;;;;;;4983238;28;88563;-33
2022/06/12 12:22:17;;;;;;;7.53;2.30;;;22.50;68.70;;;;;;4982486;28;89902;-37
2022/06/12 12:24:55;;;;;;;4.07;2.40;;;22.50;65.60;;;;;;4981269;28;89231;-35
2022/06/12 12:27:45;;;;;;;5.82;2.42;;;22.40;67.50;;;;;;4982258;28;89261;-37
2022/06/12 12:30:40;;;;;;;5.35;2.10;;;22.50;67.10;;;;;;4982055;28;89581;-35
2022/06/12 12:33:13;;;;;;;4.90;2.75;;;22.50;67.20;;;;;;4981140;28;90394;-37
2022/06/12 12:41:14;;;;;;;2.88;1.63;;;22.50;66.20;;;;;;4983012;28;88731;-35
2022/06/12 12:43:49;;;;;;;3.20;1.73;;;22.70;66.30;;;;;;4982014;28;90643;-36
2022/06/12 12:46:16;;;;;;;2.53;1.80;;;22.80;60.00;;;;;;4981887;28;89314;-39
2022/06/12 12:48:47;;;;;;;6.65;2.38;;;22.90;60.10;;;;;;4981402;28;89565;-36
2022/06/12 12:51:28;;;;;;;4.45;1.88;;;22.80;57.30;;;;;;4982506;28;89132;-35
2022/06/12 12:54:14;;;;;;;3.13;1.23;;;22.70;57.70;;;;;;4981958;28;92989;-35
2022/06/12 12:56:56;;;;;;;2.92;2.10;;;23.00;56.40;;;;;;4981446;28;90325;-33
2022/06/12 12:59:33;;;;;;;2.53;1.67;;;23.00;58.90;;;;;;5013698;22;89760;-35
2022/06/12 13:01:59;;;;;;;2.40;1.95;;;23.00;58.90;;;;;;4982293;28;89096;-35
2022/06/12 13:04:34;;;;;;;2.63;1.50;;;22.90;59.20;;;;;;4981099;28;88892;-34
2022/06/12 13:07:38;;;;;;;3.05;1.63;;;22.70;58.50;;;;;;4982142;28;89863;-38
2022/06/12 13:10:24;;;;;;;5.18;1.80;;;22.50;60.40;;;;;;4981350;28;89018;-36
2022/06/12 13:13:32;;;;;;;5.63;2.53;;;22.20;59.50;;;;;;4981317;28;89775;-37
2022/06/12 13:16:06;;;;;;;3.92;2.00;;;22.10;62.00;;;;;;4979693;28;90883;-39
2022/06/12 13:18:52;;;;;;;3.67;1.63;;;22.00;62.80;;;;;;4981970;28;89785;-36
2022/06/12 13:21:49;;;;;;;4.32;2.03;;;21.90;63.80;;;;;;4981523;28;89580;-36
2022/06/12 13:24:26;;;;;;;2.80;2.05;;;21.80;67.20;;;;;;4981037;28;88948;-36
2022/06/12 13:26:52;;;;;;;4.33;1.60;;;22.00;66.40;;;;;;4981282;28;90890;-37
2022/06/12 13:29:20;;;;;;;1.70;1.45;;;22.10;66.20;;;;;;4980700;28;89499;-36
2022/06/12 13:32:06;;;;;;;;;;;22.00;61.40;;;;;;4981912;28;88910;-35
2022/06/12 13:34:31;;;;;;;5.47;2.53;;;22.10;62.90;;;;;;4982295;28;89921;-36
2022/06/12 13:36:58;;;;;;;3.35;2.55;;;22.20;66.10;;;;;;4979949;28;90609;-34